This is the latest recevied weather packets stored in our database for station/object OM6ACB-6. If no packets are shown the sender has not sent any weather packets the latest 10 day(s).
| Time | Temp. | Humidity | Pressure | Rain* | Wind** | Luminosity | Snow |
|---|---|---|---|---|---|---|---|
| 1777845225 | 5.56° C | 30% | 1020 hPa | 0 mm | - | - | - |
| 1777844625 | 6.67° C | 29% | 1020.1 hPa | 0 mm | - | - | - |
| 1777844025 | 6.67° C | 29% | 1020.2 hPa | 0 mm | - | - | - |
| 1777843425 | 7.22° C | 29% | 1020.1 hPa | 0 mm | - | - | - |
| 1777842824 | 7.22° C | 29% | 1020.2 hPa | 0 mm | - | - | - |
| 1777842224 | 7.22° C | 29% | 1020.2 hPa | 0 mm | - | - | - |
| 1777841624 | 7.22° C | 29% | 1020.1 hPa | 0 mm | - | - | - |
| 1777841023 | 7.22° C | 29% | 1020.2 hPa | 0 mm | - | - | - |
| 1777840423 | 7.22° C | 29% | 1020.2 hPa | 0 mm | - | - | - |
| 1777839823 | 7.22° C | 29% | 1020.1 hPa | 0 mm | - | - | - |
| 1777839223 | 7.22° C | 29% | 1020 hPa | 0 mm | - | - | - |
| 1777838622 | 6.67° C | 29% | 1020 hPa | 0 mm | - | - | - |
| 1777838022 | 6.67° C | 29% | 1019.9 hPa | 0 mm | - | - | - |
| 1777837422 | 7.22° C | 29% | 1020 hPa | 0 mm | - | - | - |
| 1777836821 | 7.78° C | 29% | 1020 hPa | 0 mm | - | - | - |
| 1777836221 | 8.33° C | 28% | 1020.1 hPa | 0 mm | - | - | - |
| 1777835621 | 8.89° C | 28% | 1020 hPa | 0 mm | - | - | - |
| 1777835021 | 8.33° C | 28% | 1019.9 hPa | 0 mm | - | - | - |
| 1777834420 | 8.89° C | 28% | 1019.8 hPa | 0 mm | - | - | - |
| 1777833820 | 9.44° C | 28% | 1019.8 hPa | 0 mm | - | - | - |
| 1777833220 | 11.11° C | 27% | 1020 hPa | 0 mm | - | - | - |
| 1777832619 | 12.22° C | 26% | 1020.2 hPa | 0 mm | - | - | - |
| 1777832019 | 14.44° C | 25% | 1020.3 hPa | 0 mm | - | - | - |
| 1777831419 | 14.44° C | 25% | 1020.2 hPa | 0 mm | - | - | - |
| 1777830818 | 15° C | 25% | 1020.3 hPa | 0 mm | - | - | - |
* Rain latest hour (hover to see other rain measurements)
** Current wind speed in m/s (hover to see current wind gust speed)